SAST,Max TemperatureF,Mean TemperatureF,Min TemperatureF,Max Dew PointF,MeanDew PointF,Min DewpointF,Max Humidity, Mean Humidity, Min Humidity, Max Sea Level PressureIn, Mean Sea Level PressureIn, Min Sea Level PressureIn, Max VisibilityMiles, Mean VisibilityMiles, Min VisibilityMiles, Max Wind SpeedMPH, Mean Wind SpeedMPH, Max Gust SpeedMPH,PrecipitationIn, CloudCover, Events, WindDirDegrees
2011-10-1,62,54,46,54,50,45,94,83,72,30.09,30.02,29.98,6,6,6,15,6,,0.00,6,,266
2011-10-2,55,53,51,55,52,50,100,93,82,30.24,30.11,30.04,6,4,1,17,9,,0.00,6,Rain,242
2011-10-3,64,55,46,52,49,45,100,83,59,30.27,30.16,30.06,6,6,6,12,5,,0.00,2,,50
2011-10-4,62,56,48,52,46,39,94,72,45,30.33,30.18,30.09,6,6,6,21,12,34,0.00,5,,273
2011-10-5,62,56,48,50,48,45,94,79,55,30.42,30.36,30.30,6,6,5,12,8,,0.00,4,Rain,48
2011-10-6,77,60,42,54,46,39,100,65,29,30.33,30.19,30.09,6,6,6,10,4,,0.00,1,,13
2011-10-7,66,58,51,59,51,34,94,72,39,30.24,30.15,30.04,6,6,6,15,8,,0.00,3,,190
2011-10-8,73,62,51,61,56,50,100,84,50,30.12,30.03,29.98,6,5,0,9,5,,0.00,1,Fog,144
2011-10-9,89,70,50,66,55,45,100,75,22,29.92,29.89,29.80,6,3,0,14,5,,0.00,2,Fog,259
2011-10-10,95,78,60,61,50,37,88,52,15,30.06,29.92,29.83,6,6,5,17,8,,0.00,4,,308
2011-10-11,68,60,53,59,56,52,100,84,64,30.12,30.07,30.04,6,6,4,12,5,,0.00,5,,183
2011-10-12,69,62,55,63,59,54,100,89,73,30.04,29.97,29.92,6,6,4,26,8,38,0.00,5,Fog,93
2011-10-13,71,66,60,63,61,59,100,86,73,29.95,29.84,29.71,6,6,4,13,8,17,0.00,5,,89
2011-10-14,64,60,53,61,57,52,100,89,77,29.92,29.80,29.71,6,5,2,18,7,,0.00,5,Rain,266
2011-10-15,69,60,50,57,51,46,100,75,43,30.15,29.99,29.89,6,6,6,18,7,,0.00,3,,264
2011-10-16,62,60,57,57,54,50,100,86,68,30.18,30.14,30.09,6,6,3,18,8,,0.00,6,Rain,96
2011-10-17,66,57,48,57,52,46,100,80,55,30.06,29.91,29.77,6,6,4,23,8,34,0.00,1,,103
2011-10-18,68,60,53,59,56,54,100,87,68,29.77,29.64,29.56,6,6,2,12,5,,0.00,4,Fog,253
2011-10-19,66,58,51,54,51,45,94,75,59,29.95,29.71,29.56,6,6,6,32,12,45,0.00,5,Rain,290
2011-10-20,68,60,51,55,49,41,88,67,40,30.06,30.03,29.98,6,6,6,20,13,,0.00,4,,260
2011-10-21,62,60,57,57,56,54,100,89,77,30.04,29.85,29.77,6,6,6,8,3,,0.00,4,,82
2011-10-22,71,62,53,59,53,41,100,78,40,29.80,29.72,29.68,6,6,5,10,5,,0.00,2,,266
2011-10-23,69,60,50,54,50,46,94,70,46,29.95,29.88,29.80,6,6,6,15,7,,0.00,3,,274
2011-10-24,68,60,51,55,51,46,100,73,46,29.95,29.92,29.89,6,6,3,17,7,,0.00,4,,259
2011-10-25,66,58,51,54,48,41,88,68,40,29.95,29.89,29.86,6,6,6,17,10,,0.00,3,,269
2011-10-26,64,58,53,54,49,46,94,71,52,29.92,29.87,29.83,6,6,4,10,6,,0.00,6,Rain,261
2011-10-27,66,60,53,54,49,43,100,73,43,30.01,29.95,29.89,6,6,4,15,7,,0.00,5,Rain,235
2011-10-28,64,58,53,50,46,39,88,65,45,30.04,29.99,29.95,6,6,6,13,5,,0.00,3,,241
2011-10-29,64,58,51,52,49,46,82,69,56,29.98,29.92,29.89,6,6,6,12,5,,0.00,5,,184
2011-10-30,64,58,51,50,48,43,88,70,48,30.06,29.97,29.92,6,6,6,18,8,,0.00,5,,262
2011-10-31,68,59,50,54,44,36,82,58,34,30.21,30.10,30.06,6,6,6,23,15,,0.00,5,,273